createdAt,value
2018-12-05T00:00:43.005Z,-1.17
2018-12-05T00:01:42.996Z,-1.13
2018-12-05T00:02:43.009Z,-1.12
2018-12-05T00:03:42.975Z,-1.10
2018-12-05T00:04:42.964Z,-1.25
2018-12-05T00:05:42.951Z,-1.18
2018-12-05T00:06:42.950Z,-1.12
2018-12-05T00:07:42.968Z,-1.21
2018-12-05T00:08:42.931Z,-1.25
2018-12-05T00:09:42.920Z,-1.39
2018-12-05T00:10:42.903Z,-1.39
2018-12-05T00:11:42.896Z,-1.53
2018-12-05T00:12:42.924Z,-1.53
2018-12-05T00:13:42.891Z,-1.56
2018-12-05T00:14:42.878Z,-1.49
2018-12-05T00:15:42.863Z,-1.45
2018-12-05T00:16:42.861Z,-1.38
2018-12-05T00:17:42.879Z,-1.28
2018-12-05T00:18:42.843Z,-1.18
2018-12-05T00:19:42.831Z,-1.20
2018-12-05T00:20:42.826Z,-1.13
2018-12-05T00:21:42.815Z,-1.21
2018-12-05T00:22:42.835Z,-1.09
2018-12-05T00:23:42.803Z,-1.06
2018-12-05T00:24:42.786Z,-1.03
2018-12-05T00:25:42.771Z,-1.15
2018-12-05T00:26:42.770Z,-1.10
2018-12-05T00:27:42.791Z,-1.17
2018-12-05T00:28:42.761Z,-1.20
2018-12-05T00:29:42.747Z,-1.20
2018-12-05T00:30:42.725Z,-1.20
2018-12-05T00:31:42.725Z,-1.10
2018-12-05T00:32:42.739Z,-1.21
2018-12-05T00:33:42.712Z,-1.13
2018-12-05T00:34:42.696Z,-1.21
2018-12-05T00:35:42.690Z,-1.12
2018-12-05T00:36:42.690Z,-1.09
2018-12-05T00:37:42.699Z,-1.15
2018-12-05T00:38:42.664Z,-1.17
2018-12-05T00:39:42.654Z,-1.10
2018-12-05T00:40:42.641Z,-1.03
2018-12-05T00:41:42.638Z,-0.95
2018-12-05T00:42:42.657Z,-0.95
2018-12-05T00:43:42.620Z,-0.89
2018-12-05T00:44:42.611Z,-0.87
2018-12-05T00:45:42.604Z,-0.78
2018-12-05T00:46:42.593Z,-0.87
2018-12-05T00:47:42.618Z,-0.75
2018-12-05T00:48:42.577Z,-0.68
2018-12-05T00:49:42.571Z,-0.80
2018-12-05T00:50:42.565Z,-0.91
2018-12-05T00:51:42.553Z,-0.91
2018-12-05T00:52:42.574Z,-0.83
2018-12-05T00:53:42.538Z,-0.94
2018-12-05T00:54:42.521Z,-0.99
2018-12-05T00:55:42.523Z,-0.95
2018-12-05T00:56:42.502Z,-0.92
2018-12-05T00:57:42.532Z,-0.84
2018-12-05T00:58:42.494Z,-0.97
2018-12-05T00:59:42.484Z,-0.92
2018-12-05T01:00:42.477Z,-0.81
2018-12-05T01:01:42.494Z,-0.81
2018-12-05T01:02:42.457Z,-0.84
2018-12-05T01:03:42.446Z,-0.81
2018-12-05T01:04:42.441Z,-0.87
2018-12-05T01:05:42.431Z,-0.86
2018-12-05T01:06:42.453Z,-0.89
2018-12-05T01:07:42.419Z,-0.86
2018-12-05T01:08:42.411Z,-0.87
2018-12-05T01:09:42.394Z,-0.89
2018-12-05T01:10:42.390Z,-0.84
2018-12-05T01:11:42.420Z,-0.80
2018-12-05T01:12:42.372Z,-0.68
2018-12-05T01:13:42.367Z,-0.73
2018-12-05T01:14:42.384Z,-0.70
2018-12-05T01:15:42.350Z,-0.69
2018-12-05T01:16:42.341Z,-0.62
2018-12-05T01:17:42.358Z,-0.63
2018-12-05T01:18:42.322Z,-0.73
2018-12-05T01:19:42.315Z,-0.63
2018-12-05T01:20:42.309Z,-0.70
2018-12-05T01:21:42.287Z,-0.62
2018-12-05T01:22:42.316Z,-0.65
2018-12-05T01:23:42.280Z,-0.62
2018-12-05T01:24:42.273Z,-0.66
2018-12-05T01:25:42.257Z,-0.66
2018-12-05T01:26:42.259Z,-0.65
2018-12-05T01:27:45.744Z,-0.66
2018-12-05T01:28:42.242Z,-0.68
2018-12-05T01:29:42.228Z,-0.72
2018-12-05T01:30:42.219Z,-0.65
2018-12-05T01:31:42.248Z,-0.69
2018-12-05T01:32:42.208Z,-0.72
2018-12-05T01:33:42.199Z,-0.78
2018-12-05T01:34:42.188Z,-0.73
2018-12-05T01:35:42.250Z,-0.75
2018-12-05T01:36:42.201Z,-0.75
2018-12-05T01:37:42.163Z,-0.54
2018-12-05T01:38:42.156Z,-0.66
2018-12-05T01:39:42.174Z,-0.55
2018-12-05T01:40:42.141Z,-0.62
2018-12-05T01:41:42.131Z,-0.57
2018-12-05T01:42:42.146Z,-0.55
2018-12-05T01:43:42.113Z,-0.52
2018-12-05T01:44:42.108Z,-0.48
2018-12-05T01:45:42.097Z,-0.57
2018-12-05T01:46:42.120Z,-0.59
2018-12-05T01:47:42.081Z,-0.62
2018-12-05T01:48:42.074Z,-0.70
2018-12-05T01:49:42.086Z,-0.59
2018-12-05T01:50:42.058Z,-0.62
2018-12-05T01:51:42.047Z,-0.62
2018-12-05T01:52:42.068Z,-0.52
2018-12-05T01:53:42.027Z,-0.60
2018-12-05T01:54:42.027Z,-0.54
2018-12-05T01:55:42.012Z,-0.59
2018-12-05T01:56:42.043Z,-0.57
2018-12-05T01:57:42.013Z,-0.54
2018-12-05T01:58:41.994Z,-0.55
2018-12-05T01:59:42.549Z,-0.52
2018-12-05T02:00:41.967Z,-0.54
2018-12-05T02:01:41.995Z,-0.50
2018-12-05T02:02:41.955Z,-0.48
2018-12-05T02:03:41.948Z,-0.50
2018-12-05T02:04:41.939Z,-0.41
2018-12-05T02:05:41.929Z,-0.27
2018-12-05T02:06:41.954Z,-0.34
2018-12-05T02:07:41.918Z,-0.39
2018-12-05T02:08:41.912Z,-0.31
2018-12-05T02:09:41.900Z,-0.27
2018-12-05T02:10:41.891Z,-0.36
2018-12-05T02:11:41.909Z,-0.37
2018-12-05T02:12:41.876Z,-0.41
2018-12-05T02:13:41.867Z,-0.57
2018-12-05T02:14:41.857Z,-0.50
2018-12-05T02:15:41.854Z,-0.54
2018-12-05T02:16:41.868Z,-0.55
2018-12-05T02:17:41.838Z,-0.57
2018-12-05T02:18:41.826Z,-0.69
2018-12-05T02:19:41.824Z,-0.59
2018-12-05T02:20:41.809Z,-0.65
2018-12-05T02:21:41.820Z,-0.63
2018-12-05T02:22:41.795Z,-0.62
2018-12-05T02:23:41.783Z,-0.66
2018-12-05T02:24:41.781Z,-0.55
2018-12-05T02:25:41.762Z,-0.60
2018-12-05T02:26:41.794Z,-0.55
2018-12-05T02:27:41.752Z,-0.63
2018-12-05T02:28:41.746Z,-0.63
2018-12-05T02:29:41.738Z,-0.73
2018-12-05T02:30:41.731Z,-0.84
2018-12-05T02:31:41.751Z,-0.84
2018-12-05T02:32:41.742Z,-0.83
2018-12-05T02:33:41.702Z,-0.91
2018-12-05T02:34:41.700Z,-0.83
2018-12-05T02:35:41.715Z,-0.83
2018-12-05T02:36:41.681Z,-0.87
2018-12-05T02:37:41.668Z,-0.91
2018-12-05T02:38:41.665Z,-1.06
2018-12-05T02:39:41.655Z,-0.97
2018-12-05T02:40:41.676Z,-1.07
2018-12-05T02:41:41.638Z,-1.10
2018-12-05T02:42:41.639Z,-1.10
2018-12-05T02:43:41.626Z,-1.17
2018-12-05T02:44:41.620Z,-1.13
2018-12-05T02:45:41.643Z,-1.10
2018-12-05T02:46:41.594Z,-1.17
2018-12-05T02:47:41.595Z,-1.05
2018-12-05T02:48:41.579Z,-1.12
2018-12-05T02:49:41.571Z,-0.95
2018-12-05T02:50:41.591Z,-1.05
2018-12-05T02:51:41.552Z,-1.06
2018-12-05T02:52:41.548Z,-1.09
2018-12-05T02:53:41.536Z,-1.06
2018-12-05T02:54:41.529Z,-1.05
2018-12-05T02:55:41.848Z,-1.07
2018-12-05T02:56:41.514Z,-1.09
2018-12-05T02:57:41.506Z,-1.10
2018-12-05T02:58:41.494Z,-1.15
2018-12-05T02:59:41.492Z,-1.31
2018-12-05T03:00:41.505Z,-1.21
2018-12-05T03:01:41.469Z,-1.17
2018-12-05T03:02:41.462Z,-1.20
2018-12-05T03:03:41.450Z,-1.18
2018-12-05T03:04:41.451Z,-1.05
2018-12-05T03:05:41.460Z,-1.05
2018-12-05T03:06:41.449Z,-0.94
2018-12-05T03:07:41.588Z,-0.92
2018-12-05T03:08:41.410Z,-0.91
2018-12-05T03:09:41.402Z,-0.89
2018-12-05T03:10:41.418Z,-0.89
2018-12-05T03:11:41.385Z,-0.97
2018-12-05T03:12:41.377Z,-0.97
2018-12-05T03:13:41.369Z,-0.99
2018-12-05T03:14:41.362Z,-0.95
2018-12-05T03:15:41.376Z,-0.94
2018-12-05T03:16:41.349Z,-0.99
2018-12-05T03:17:41.336Z,-0.95
2018-12-05T03:18:41.325Z,-0.94
2018-12-05T03:19:41.313Z,-0.92
2018-12-05T03:20:41.350Z,-0.83
2018-12-05T03:21:41.301Z,-0.83
2018-12-05T03:22:41.292Z,-0.70
2018-12-05T03:23:41.285Z,-0.51
2018-12-05T03:24:41.277Z,-0.63
2018-12-05T03:25:41.290Z,-0.63
2018-12-05T03:26:41.256Z,-0.65
2018-12-05T03:27:41.250Z,-0.70
2018-12-05T03:28:41.239Z,-0.65
2018-12-05T03:29:41.237Z,-0.65
2018-12-05T03:30:41.251Z,-0.72
2018-12-05T03:31:41.220Z,-0.72
2018-12-05T03:32:41.211Z,-0.81
2018-12-05T03:33:41.202Z,-0.81
2018-12-05T03:34:41.188Z,-0.83
2018-12-05T03:35:41.208Z,-0.86
2018-12-05T03:36:41.173Z,-0.83
2018-12-05T03:37:41.163Z,-0.91
2018-12-05T03:38:41.158Z,-0.83
2018-12-05T03:39:41.147Z,-0.80
2018-12-05T03:40:41.167Z,-0.83
2018-12-05T03:41:41.132Z,-0.69
2018-12-05T03:42:41.128Z,-0.72
2018-12-05T03:43:41.120Z,-0.72
2018-12-05T03:44:41.107Z,-0.73
2018-12-05T03:45:41.123Z,-0.72
2018-12-05T03:46:41.093Z,-0.63
2018-12-05T03:47:41.083Z,-0.63
2018-12-05T03:48:41.075Z,-0.68
2018-12-05T03:49:41.067Z,-0.59
2018-12-05T03:50:41.087Z,-0.60
2018-12-05T03:51:41.044Z,-0.63
2018-12-05T03:52:41.041Z,-0.48
2018-12-05T03:53:41.031Z,-0.51
2018-12-05T03:54:41.024Z,-0.41
2018-12-05T03:55:41.044Z,-0.39
2018-12-05T03:56:41.011Z,-0.39
2018-12-05T03:57:41.000Z,-0.45
2018-12-05T03:58:40.992Z,-0.45
2018-12-05T03:59:40.984Z,-0.52
2018-12-05T04:00:41.003Z,-0.51
2018-12-05T04:01:40.967Z,-0.55
2018-12-05T04:02:40.961Z,-0.62
2018-12-05T04:03:40.955Z,-0.59
2018-12-05T04:04:40.944Z,-0.72
2018-12-05T04:05:40.965Z,-0.70
2018-12-05T04:06:40.935Z,-0.72
2018-12-05T04:07:40.918Z,-0.72
2018-12-05T04:08:40.912Z,-0.63
2018-12-05T04:09:40.901Z,-0.66
2018-12-05T04:10:40.907Z,-0.51
2018-12-05T04:11:40.875Z,-0.66
2018-12-05T04:12:41.003Z,-0.59
2018-12-05T04:13:40.855Z,-0.45
2018-12-05T04:14:40.854Z,-0.51
2018-12-05T04:15:40.867Z,-0.54
2018-12-05T04:16:40.830Z,-0.60
2018-12-05T04:17:40.829Z,-0.60
2018-12-05T04:18:40.814Z,-0.55
2018-12-05T04:19:40.807Z,-0.63
2018-12-05T04:20:40.833Z,-0.65
2018-12-05T04:21:40.792Z,-0.66
2018-12-05T04:22:40.779Z,-0.48
2018-12-05T04:23:40.831Z,-0.52
2018-12-05T04:24:40.767Z,-0.50
2018-12-05T04:25:40.787Z,-0.62
2018-12-05T04:26:40.754Z,-0.66
2018-12-05T04:27:40.743Z,-0.65
2018-12-05T04:28:40.735Z,-0.69
2018-12-05T04:29:40.729Z,-0.69
2018-12-05T04:30:40.752Z,-0.65
2018-12-05T04:31:40.745Z,-0.48
2018-12-05T04:32:40.708Z,-0.50
2018-12-05T04:33:40.692Z,-0.60
2018-12-05T04:34:40.686Z,-0.41
2018-12-05T04:35:40.680Z,-0.39
2018-12-05T04:36:40.699Z,-0.45
2018-12-05T04:37:40.742Z,-0.29
2018-12-05T04:38:40.655Z,-0.31
2018-12-05T04:39:40.656Z,-0.27
2018-12-05T04:40:40.668Z,-0.39
2018-12-05T04:41:40.624Z,-0.41
2018-12-05T04:42:40.625Z,-0.52
2018-12-05T04:43:40.615Z,-0.50
2018-12-05T04:44:40.610Z,-0.55
2018-12-05T04:45:40.620Z,-0.51
2018-12-05T04:46:40.618Z,-0.62
2018-12-05T04:47:41.362Z,-0.63
2018-12-05T04:48:40.570Z,-0.73
2018-12-05T04:49:40.562Z,-0.65
2018-12-05T04:50:40.554Z,-0.66
2018-12-05T04:51:40.574Z,-0.70
2018-12-05T04:52:40.541Z,-0.78
2018-12-05T04:53:40.530Z,-0.68
2018-12-05T04:54:40.522Z,-0.78
2018-12-05T04:55:40.514Z,-0.66
2018-12-05T04:56:40.533Z,-0.69
2018-12-05T04:57:40.499Z,-0.66
2018-12-05T04:58:40.490Z,-0.60
2018-12-05T04:59:40.480Z,-0.70
2018-12-05T05:00:40.478Z,-0.72
2018-12-05T05:01:40.488Z,-0.72
2018-12-05T05:02:40.453Z,-0.69
2018-12-05T05:03:40.446Z,-0.72
2018-12-05T05:04:40.438Z,-0.69
2018-12-05T05:05:40.434Z,-0.72
2018-12-05T05:06:41.848Z,-0.70
2018-12-05T05:07:40.410Z,-0.80
2018-12-05T05:08:40.406Z,-0.84
2018-12-05T05:09:40.397Z,-0.78
2018-12-05T05:10:40.389Z,-0.84
2018-12-05T05:11:40.410Z,-0.86
2018-12-05T05:12:40.369Z,-0.92
2018-12-05T05:13:40.362Z,-1.00
2018-12-05T05:14:40.355Z,-0.94
2018-12-05T05:15:40.351Z,-1.03
2018-12-05T05:16:40.374Z,-1.03
2018-12-05T05:17:40.330Z,-1.06
2018-12-05T05:18:40.319Z,-1.03
2018-12-05T05:19:40.322Z,-1.15
2018-12-05T05:20:40.302Z,-1.10
2018-12-05T05:21:40.329Z,-1.20
2018-12-05T05:22:40.315Z,-1.27
2018-12-05T05:23:40.273Z,-1.15
2018-12-05T05:24:40.272Z,-1.45
2018-12-05T05:25:40.258Z,-1.45
2018-12-05T05:26:40.250Z,-1.53
2018-12-05T05:27:45.882Z,-1.64
2018-12-05T05:28:40.234Z,-1.60
2018-12-05T05:29:40.226Z,-1.59
2018-12-05T05:30:40.217Z,-1.56
2018-12-05T05:31:40.317Z,-1.64
2018-12-05T05:32:40.211Z,-1.66
2018-12-05T05:33:40.191Z,-1.56
2018-12-05T05:34:40.185Z,-1.46
2018-12-05T05:35:40.174Z,-1.41
2018-12-05T05:36:40.203Z,-1.27
2018-12-05T05:37:40.157Z,-1.27
2018-12-05T05:38:40.147Z,-1.25
2018-12-05T05:39:40.136Z,-1.30
2018-12-05T05:40:40.130Z,-1.24
2018-12-05T05:41:40.144Z,-1.18
2018-12-05T05:42:40.114Z,-1.28
2018-12-05T05:43:40.100Z,-1.43
2018-12-05T05:44:40.093Z,-1.54
2018-12-05T05:45:40.085Z,-1.53
2018-12-05T05:46:40.104Z,-1.70
2018-12-05T05:47:40.073Z,-1.82
2018-12-05T05:48:40.056Z,-1.95
2018-12-05T05:49:40.049Z,-1.93
2018-12-05T05:50:40.042Z,-2.00
2018-12-05T05:51:40.060Z,-1.99
2018-12-05T05:52:40.024Z,-2.06
2018-12-05T05:53:40.012Z,-2.10
2018-12-05T05:54:40.001Z,-2.02
2018-12-05T05:55:39.996Z,-2.05
2018-12-05T05:56:40.018Z,-2.16
2018-12-05T05:57:40.005Z,-2.10
2018-12-05T05:58:39.964Z,-2.11
2018-12-05T05:59:39.961Z,-2.03
2018-12-05T06:00:39.956Z,-2.06
2018-12-05T06:01:39.945Z,-1.93
2018-12-05T06:02:39.960Z,-1.98
2018-12-05T06:03:39.920Z,-1.88
2018-12-05T06:04:39.912Z,-1.93
2018-12-05T06:05:39.898Z,-1.88
2018-12-05T06:06:39.895Z,-1.85
2018-12-05T06:07:39.917Z,-1.82
2018-12-05T06:08:39.876Z,-1.85
2018-12-05T06:09:39.867Z,-1.81
2018-12-05T06:10:39.860Z,-1.75
2018-12-05T06:11:39.881Z,-1.66
2018-12-05T06:12:39.840Z,-1.62
2018-12-05T06:13:39.831Z,-1.62
2018-12-05T06:14:39.821Z,-1.62
2018-12-05T06:15:39.810Z,-1.69
2018-12-05T06:16:39.829Z,-1.67
2018-12-05T06:17:39.792Z,-1.64
2018-12-05T06:18:39.776Z,-1.54
2018-12-05T06:19:39.771Z,-1.60
2018-12-05T06:20:39.775Z,-1.62
2018-12-05T06:21:39.777Z,-1.69
2018-12-05T06:22:39.743Z,-1.63
2018-12-05T06:23:39.736Z,-1.64
2018-12-05T06:24:39.725Z,-1.66
2018-12-05T06:25:40.513Z,-1.70
2018-12-05T06:26:39.707Z,-1.75
2018-12-05T06:27:39.728Z,-1.84
2018-12-05T06:28:39.686Z,-1.88
2018-12-05T06:29:39.677Z,-1.96
2018-12-05T06:30:40.643Z,-1.77
2018-12-05T06:31:39.660Z,-1.87
2018-12-05T06:32:39.685Z,-1.95
2018-12-05T06:33:39.640Z,-2.00
2018-12-05T06:34:39.627Z,-2.13
2018-12-05T06:35:39.628Z,-2.18
2018-12-05T06:36:39.615Z,-2.28
2018-12-05T06:37:39.640Z,-2.26
2018-12-05T06:38:39.595Z,-2.23
2018-12-05T06:39:39.587Z,-2.39
2018-12-05T06:40:39.583Z,-2.48
2018-12-05T06:41:39.564Z,-2.33
2018-12-05T06:42:39.594Z,-2.38
2018-12-05T06:43:39.542Z,-2.35
2018-12-05T06:44:39.539Z,-2.32
2018-12-05T06:45:39.531Z,-2.26
2018-12-05T06:46:39.551Z,-2.23
2018-12-05T06:47:39.510Z,-2.40
2018-12-05T06:48:39.531Z,-2.28
2018-12-05T06:49:39.490Z,-2.29
2018-12-05T06:50:39.489Z,-2.32
2018-12-05T06:51:39.470Z,-2.29
2018-12-05T06:52:39.489Z,-2.29
2018-12-05T06:53:39.462Z,-2.23
2018-12-05T06:54:39.446Z,-2.23
2018-12-05T06:55:39.444Z,-2.13
2018-12-05T06:56:39.430Z,-2.06
2018-12-05T06:57:39.448Z,-2.06
2018-12-05T06:58:39.408Z,-2.06
2018-12-05T06:59:39.395Z,-2.08
2018-12-05T07:00:39.385Z,-2.08
2018-12-05T07:01:39.413Z,-2.08
2018-12-05T07:02:39.370Z,-1.93
2018-12-05T07:03:39.385Z,-1.98
2018-12-05T07:04:39.350Z,-1.98
2018-12-05T07:05:39.340Z,-1.87
2018-12-05T07:06:39.332Z,-1.74
2018-12-05T07:07:39.323Z,-1.82
2018-12-05T07:08:39.341Z,-1.75
2018-12-05T07:09:39.302Z,-1.69
2018-12-05T07:10:39.405Z,-1.72
2018-12-05T07:11:39.282Z,-1.77
2018-12-05T07:12:39.306Z,-1.66
2018-12-05T07:13:39.289Z,-1.51
2018-12-05T07:14:39.256Z,-1.46
2018-12-05T07:15:39.245Z,-1.28
2018-12-05T07:16:39.237Z,-1.43
2018-12-05T07:17:39.224Z,-1.51
2018-12-05T07:18:39.245Z,-1.54
2018-12-05T07:19:39.211Z,-1.75
2018-12-05T07:20:39.203Z,-1.72
2018-12-05T07:21:39.190Z,-1.70
2018-12-05T07:22:39.180Z,-1.82
2018-12-05T07:23:39.195Z,-1.80
2018-12-05T07:24:39.162Z,-1.82
2018-12-05T07:25:39.160Z,-1.82
2018-12-05T07:26:39.146Z,-1.78
2018-12-05T07:27:39.134Z,-1.66
2018-12-05T07:28:39.152Z,-1.59
2018-12-05T07:29:39.116Z,-1.51
2018-12-05T07:30:39.105Z,-1.48
2018-12-05T07:31:39.097Z,-1.31
2018-12-05T07:32:39.088Z,-1.27
2018-12-05T07:33:39.113Z,-1.39
2018-12-05T07:34:39.076Z,-1.36
2018-12-05T07:35:39.061Z,-1.54
2018-12-05T07:36:39.053Z,-1.63
2018-12-05T07:37:39.052Z,-1.62
2018-12-05T07:38:39.063Z,-1.59
2018-12-05T07:39:39.024Z,-1.60
2018-12-05T07:40:39.020Z,-1.63
2018-12-05T07:41:39.008Z,-1.66
2018-12-05T07:42:39.030Z,-1.69
2018-12-05T07:43:38.988Z,-1.67
2018-12-05T07:44:39.011Z,-1.66
2018-12-05T07:45:38.965Z,-1.56
2018-12-05T07:46:38.965Z,-1.57
2018-12-05T07:47:38.955Z,-1.57
2018-12-05T07:48:38.947Z,-1.62
2018-12-05T07:49:38.972Z,-1.56
2018-12-05T07:50:38.927Z,-1.46
2018-12-05T07:51:38.919Z,-1.25
2018-12-05T07:52:38.911Z,-1.17
2018-12-05T07:53:38.927Z,-0.81
2018-12-05T07:54:38.891Z,-0.62
2018-12-05T07:55:38.887Z,-0.36
2018-12-05T07:56:38.875Z,-0.26
2018-12-05T07:57:38.867Z,-0.01
2018-12-05T07:58:38.883Z,0.10
2018-12-05T07:59:38.849Z,0.09
2018-12-05T08:00:38.836Z,0.13
2018-12-05T08:01:38.831Z,0.23
2018-12-05T08:02:38.823Z,0.39
2018-12-05T08:03:38.846Z,0.38
2018-12-05T08:04:38.806Z,0.45
2018-12-05T08:05:38.801Z,0.42
2018-12-05T08:06:38.791Z,0.34
2018-12-05T08:07:38.806Z,0.33
2018-12-05T08:08:38.779Z,0.31
2018-12-05T08:09:38.790Z,0.41
2018-12-05T08:10:38.757Z,0.49
2018-12-05T08:11:38.743Z,0.61
2018-12-05T08:12:38.744Z,0.71
2018-12-05T08:13:38.730Z,0.79
2018-12-05T08:14:38.749Z,1.00
2018-12-05T08:15:38.724Z,1.19
2018-12-05T08:16:38.705Z,1.39
2018-12-05T08:17:38.701Z,1.68
2018-12-05T08:18:38.694Z,1.80
2018-12-05T08:19:38.713Z,1.97
2018-12-05T08:20:38.677Z,2.20
2018-12-05T08:21:38.673Z,1.85
2018-12-05T08:22:38.668Z,1.24
2018-12-05T08:23:38.662Z,1.28
2018-12-05T08:24:38.688Z,1.19
2018-12-05T08:25:38.667Z,1.26
2018-12-05T08:26:38.643Z,1.25
2018-12-05T08:27:38.645Z,1.44
2018-12-05T08:28:38.631Z,1.76
2018-12-05T08:29:38.656Z,1.85
2018-12-05T08:30:38.624Z,1.36
2018-12-05T08:31:38.618Z,1.33
2018-12-05T08:32:38.612Z,1.43
2018-12-05T08:33:38.608Z,1.39
2018-12-05T08:34:38.632Z,1.43
2018-12-05T08:35:38.596Z,1.43
2018-12-05T08:36:38.598Z,1.40
2018-12-05T08:37:38.587Z,1.40
2018-12-05T08:38:38.585Z,1.68
2018-12-05T08:39:38.611Z,1.98
2018-12-05T08:40:38.575Z,2.26
2018-12-05T08:41:38.572Z,2.52
2018-12-05T08:42:38.567Z,2.74
2018-12-05T08:43:38.566Z,3.10
2018-12-05T08:44:38.592Z,3.30
2018-12-05T08:45:38.556Z,3.72
2018-12-05T08:46:38.560Z,4.12
2018-12-05T08:47:38.552Z,4.65
2018-12-05T08:48:38.555Z,4.79
2018-12-05T08:49:38.579Z,4.76
2018-12-05T08:50:38.548Z,4.72
2018-12-05T08:51:38.553Z,4.69
2018-12-05T08:52:38.546Z,4.79
2018-12-05T08:53:38.542Z,4.62
2018-12-05T08:54:38.572Z,4.19
2018-12-05T08:55:38.749Z,4.54
2018-12-05T08:56:39.566Z,4.98
2018-12-05T08:57:40.018Z,4.96
2018-12-05T08:58:38.772Z,4.96
2018-12-05T08:59:39.891Z,5.05
2018-12-05T09:00:45.320Z,5.64
2018-12-05T09:01:40.115Z,5.91
2018-12-05T09:02:43.905Z,5.95
2018-12-05T09:03:39.272Z,5.70
2018-12-05T09:04:38.555Z,5.78
2018-12-05T09:05:41.515Z,6.13
2018-12-05T09:06:39.427Z,6.28
2018-12-05T09:07:53.278Z,6.68
2018-12-05T09:08:40.617Z,6.61
2018-12-05T09:09:38.881Z,6.18
2018-12-05T09:10:38.698Z,6.41
2018-12-05T09:11:38.852Z,6.65
2018-12-05T09:12:38.731Z,6.95
2018-12-05T09:13:38.718Z,7.58
2018-12-05T09:14:38.591Z,7.92
2018-12-05T09:15:40.378Z,8.12
2018-12-05T09:16:38.599Z,8.44
2018-12-05T09:17:38.670Z,8.73
2018-12-05T09:18:38.616Z,8.94
2018-12-05T09:19:38.611Z,9.13
2018-12-05T09:20:38.733Z,8.42
2018-12-05T09:21:38.620Z,8.02
2018-12-05T09:22:41.468Z,7.05
2018-12-05T09:23:38.635Z,7.01
2018-12-05T09:24:38.637Z,7.56
2018-12-05T09:25:38.673Z,7.49
2018-12-05T09:26:38.651Z,7.09
2018-12-05T09:27:38.659Z,7.53
2018-12-05T09:28:38.667Z,7.99
2018-12-05T09:29:38.668Z,8.29
2018-12-05T09:30:38.699Z,8.66
2018-12-05T09:31:38.699Z,9.10
2018-12-05T09:32:38.696Z,9.31
2018-12-05T09:33:38.701Z,8.65
2018-12-05T09:34:38.743Z,8.28
2018-12-05T09:35:38.779Z,8.20
2018-12-05T09:36:38.714Z,8.35
2018-12-05T09:37:38.720Z,8.66
2018-12-05T09:38:38.766Z,8.45
2018-12-05T09:39:38.754Z,8.47
2018-12-05T09:40:38.807Z,8.07
2018-12-05T09:41:38.758Z,8.17
2018-12-05T09:42:39.699Z,7.94
2018-12-05T09:43:38.894Z,7.71
2018-12-05T09:44:38.779Z,7.77
2018-12-05T09:45:38.790Z,7.72
2018-12-05T09:46:38.831Z,7.72
2018-12-05T09:47:38.872Z,7.99
2018-12-05T09:48:38.810Z,7.87
2018-12-05T09:49:38.823Z,8.30
2018-12-05T09:50:38.879Z,8.54
2018-12-05T09:51:38.912Z,7.94
2018-12-05T09:52:38.852Z,7.56
2018-12-05T09:53:38.973Z,7.92
2018-12-05T09:54:38.872Z,8.42
2018-12-05T09:55:38.875Z,8.88
2018-12-05T09:56:38.913Z,9.02
2018-12-05T09:57:38.897Z,8.30
2018-12-05T09:58:38.903Z,7.60
2018-12-05T09:59:38.914Z,7.15
2018-12-05T10:00:38.923Z,6.73
2018-12-05T10:01:38.963Z,6.68
2018-12-05T10:02:38.949Z,6.72
2018-12-05T10:03:38.977Z,6.97
2018-12-05T10:04:38.964Z,6.80
2018-12-05T10:05:38.970Z,6.58
2018-12-05T10:06:39.013Z,6.50
2018-12-05T10:07:38.998Z,6.91
2018-12-05T10:08:39.048Z,6.77
2018-12-05T10:09:39.015Z,6.58
2018-12-05T10:10:39.029Z,6.61
2018-12-05T10:11:39.033Z,6.80
2018-12-05T10:12:39.077Z,7.20
2018-12-05T10:13:39.058Z,6.94
2018-12-05T10:14:39.061Z,7.66
2018-12-05T10:15:39.076Z,8.17
2018-12-05T10:16:39.109Z,8.86
2018-12-05T10:17:39.096Z,9.45
2018-12-05T10:18:39.101Z,10.25
2018-12-05T10:19:39.108Z,10.59
2018-12-05T10:20:39.120Z,10.44
2018-12-05T10:21:39.164Z,9.97
2018-12-05T10:22:39.140Z,9.12
2018-12-05T10:23:39.153Z,8.93
2018-12-05T10:24:39.222Z,9.18
2018-12-05T10:25:39.224Z,9.56
2018-12-05T10:26:39.262Z,9.67
2018-12-05T10:27:39.207Z,10.18
2018-12-05T10:28:39.221Z,10.66
2018-12-05T10:29:39.228Z,10.74
2018-12-05T10:30:39.252Z,9.96
2018-12-05T10:31:43.964Z,9.70
2018-12-05T10:32:39.240Z,10.00
2018-12-05T10:33:39.255Z,10.42
2018-12-05T10:34:39.270Z,10.51
2018-12-05T10:35:39.279Z,10.22
2018-12-05T10:36:39.316Z,9.86
2018-12-05T10:37:39.297Z,10.30
2018-12-05T10:38:39.335Z,10.91
2018-12-05T10:39:39.320Z,11.17
2018-12-05T10:40:39.333Z,11.25
2018-12-05T10:41:39.370Z,11.89
2018-12-05T10:42:39.381Z,12.23
2018-12-05T10:43:39.367Z,12.46
2018-12-05T10:44:39.386Z,12.52
2018-12-05T10:45:39.386Z,12.59
2018-12-05T10:46:39.428Z,12.02
2018-12-05T10:47:39.411Z,11.67
2018-12-05T10:48:40.645Z,11.11
2018-12-05T10:49:39.435Z,10.47
2018-12-05T10:50:39.450Z,9.06
2018-12-05T10:51:39.482Z,9.12
2018-12-05T10:52:39.466Z,9.05
2018-12-05T10:53:39.475Z,9.39
2018-12-05T10:54:39.492Z,9.21
2018-12-05T10:55:39.504Z,9.30
2018-12-05T10:56:39.541Z,9.58
2018-12-05T10:57:39.529Z,9.61
2018-12-05T10:58:39.537Z,9.43
2018-12-05T10:59:39.550Z,9.02
2018-12-05T11:00:39.568Z,7.96
2018-12-05T11:01:39.597Z,7.94
2018-12-05T11:02:39.581Z,7.67
2018-12-05T11:03:39.593Z,7.15
2018-12-05T11:04:39.607Z,6.97
2018-12-05T11:05:39.613Z,7.22
2018-12-05T11:06:39.649Z,7.47
2018-12-05T11:07:39.633Z,7.71
2018-12-05T11:08:39.645Z,7.94
2018-12-05T11:09:39.656Z,8.02
2018-12-05T11:10:39.662Z,7.26
2018-12-05T11:11:39.697Z,7.13
2018-12-05T11:12:39.683Z,7.16
2018-12-05T11:13:39.689Z,7.19
2018-12-05T11:14:39.704Z,7.37
2018-12-05T11:15:39.721Z,7.37
2018-12-05T11:16:39.743Z,6.95
2018-12-05T11:17:39.724Z,6.95
2018-12-05T11:18:39.733Z,6.83
2018-12-05T11:19:39.766Z,7.42
2018-12-05T11:20:39.747Z,7.71
2018-12-05T11:21:39.752Z,8.21
2018-12-05T11:22:39.794Z,8.00
2018-12-05T11:23:39.775Z,7.49
2018-12-05T11:24:39.777Z,7.08
2018-12-05T11:25:39.780Z,6.66
2018-12-05T11:26:39.791Z,6.65
2018-12-05T11:27:39.828Z,6.98
2018-12-05T11:28:39.809Z,7.37
2018-12-05T11:29:39.811Z,7.78
2018-12-05T11:30:39.825Z,7.90
2018-12-05T11:31:39.824Z,8.08
2018-12-05T11:32:39.860Z,8.47
2018-12-05T11:33:39.835Z,8.25
2018-12-05T11:34:39.844Z,7.93
2018-12-05T11:35:39.853Z,7.84
2018-12-05T11:36:39.887Z,7.50
2018-12-05T11:37:39.883Z,7.78
2018-12-05T11:38:39.872Z,7.29
2018-12-05T11:39:39.905Z,7.37
2018-12-05T11:40:39.883Z,7.22
2018-12-05T11:41:39.889Z,7.44
2018-12-05T11:42:39.923Z,7.47
2018-12-05T11:43:39.905Z,7.56
2018-12-05T11:44:39.908Z,7.45
2018-12-05T11:45:39.916Z,7.59
2018-12-05T11:46:39.920Z,7.44
2018-12-05T11:47:39.958Z,7.17
2018-12-05T11:48:39.935Z,7.19
2018-12-05T11:49:39.931Z,7.08
2018-12-05T11:50:39.959Z,7.13
2018-12-05T11:51:39.949Z,6.86
2018-12-05T11:52:39.983Z,6.98
2018-12-05T11:53:39.964Z,7.04
2018-12-05T11:54:39.973Z,7.69
2018-12-05T11:55:39.968Z,7.96
2018-12-05T11:56:39.976Z,8.04
2018-12-05T11:57:40.005Z,8.25
2018-12-05T11:58:39.985Z,7.87
2018-12-05T11:59:39.988Z,7.62
2018-12-05T12:00:40.000Z,7.67
2018-12-05T12:01:40.000Z,7.79
2018-12-05T12:02:40.037Z,8.02
2018-12-05T12:03:40.025Z,8.35
2018-12-05T12:04:40.016Z,8.48
2018-12-05T12:05:40.024Z,8.72
2018-12-05T12:06:40.028Z,9.20
2018-12-05T12:07:40.064Z,9.09
2018-12-05T12:08:40.039Z,8.65
2018-12-05T12:09:40.050Z,9.06
2018-12-05T12:10:40.051Z,9.76
2018-12-05T12:11:40.058Z,10.36
2018-12-05T12:12:40.095Z,10.89
2018-12-05T12:13:40.067Z,11.29
2018-12-05T12:14:40.073Z,11.35
2018-12-05T12:15:40.082Z,11.28
2018-12-05T12:16:40.117Z,11.50
2018-12-05T12:17:41.853Z,11.43
2018-12-05T12:18:40.100Z,10.98
2018-12-05T12:19:40.139Z,10.78
2018-12-05T12:20:40.114Z,10.95
2018-12-05T12:21:40.119Z,11.20
2018-12-05T12:22:40.165Z,11.06
2018-12-05T12:23:40.136Z,10.26
2018-12-05T12:24:40.144Z,9.99
2018-12-05T12:25:40.151Z,9.42
2018-12-05T12:26:40.162Z,9.38
2018-12-05T12:27:40.197Z,9.67
2018-12-05T12:28:40.178Z,9.38
2018-12-05T12:29:40.182Z,9.58
2018-12-05T12:30:40.195Z,9.73
2018-12-05T12:31:40.191Z,9.68
2018-12-05T12:32:40.229Z,10.12
2018-12-05T12:33:40.208Z,9.67
2018-12-05T12:34:40.241Z,8.60
2018-12-05T12:35:40.224Z,8.65
2018-12-05T12:36:40.224Z,8.22
2018-12-05T12:37:40.237Z,8.17
2018-12-05T12:38:40.623Z,8.25
2018-12-05T12:39:40.250Z,8.02
2018-12-05T12:40:40.254Z,7.89
2018-12-05T12:41:40.258Z,8.11
2018-12-05T12:42:40.310Z,8.25
2018-12-05T12:43:40.273Z,8.25
2018-12-05T12:44:40.313Z,7.94
2018-12-05T12:45:40.287Z,7.72
2018-12-05T12:46:40.286Z,7.71
2018-12-05T12:47:40.291Z,7.82
2018-12-05T12:48:40.323Z,7.94
2018-12-05T12:49:40.300Z,8.33
2018-12-05T12:50:40.307Z,8.53
2018-12-05T12:51:40.310Z,8.26
2018-12-05T12:52:40.320Z,8.26
2018-12-05T12:53:40.347Z,8.02
2018-12-05T12:54:40.327Z,7.92
2018-12-05T12:55:40.343Z,7.63
2018-12-05T12:56:40.333Z,7.69
2018-12-05T12:57:40.341Z,7.17
2018-12-05T12:58:40.373Z,6.87
2018-12-05T12:59:40.352Z,7.15
2018-12-05T13:00:40.353Z,7.02
2018-12-05T13:01:40.352Z,7.15